sensor_id;sensor_type;location;lat;lon;timestamp;pressure;altitude;pressure_sealevel;temperature;humidity
48424;BME280;34232;42.502;26.014;2024-01-27T08:21:44;100473.44;;;4.03;73.31
48424;BME280;34232;42.502;26.014;2024-01-27T08:24:09;100480.34;;;4.04;72.98
48424;BME280;34232;42.502;26.014;2024-01-27T08:26:34;100480.16;;;4.07;73.78
48424;BME280;34232;42.502;26.014;2024-01-27T08:28:59;100468.69;;;4.11;73.67
48424;BME280;34232;42.502;26.014;2024-01-27T08:31:25;100469.16;;;4.19;73.63
48424;BME280;34232;42.502;26.014;2024-01-27T08:33:50;100472.44;;;4.23;73.89
48424;BME280;34232;42.502;26.014;2024-01-27T08:36:15;100461.94;;;4.25;74.39
48424;BME280;34232;42.502;26.014;2024-01-27T08:38:41;100460.03;;;4.28;73.86
48424;BME280;34232;42.502;26.014;2024-01-27T08:41:06;100465.53;;;4.39;73.65
48424;BME280;34232;42.502;26.014;2024-01-27T08:43:31;100467.16;;;4.42;73.25
48424;BME280;34232;42.502;26.014;2024-01-27T08:45:57;100474.53;;;4.51;73.29
48424;BME280;34232;42.502;26.014;2024-01-27T08:48:25;100484.97;;;4.51;72.93
48424;BME280;34232;42.502;26.014;2024-01-27T08:50:50;100487.41;;;4.54;72.76
48424;BME280;34232;42.502;26.014;2024-01-27T08:53:16;100477.59;;;4.59;73.41
48424;BME280;34232;42.502;26.014;2024-01-27T08:55:41;100474.75;;;4.64;73.62
48424;BME280;34232;42.502;26.014;2024-01-27T08:58:06;100490.25;;;4.67;72.60
48424;BME280;34232;42.502;26.014;2024-01-27T09:00:32;100497.66;;;4.74;72.39
48424;BME280;34232;42.502;26.014;2024-01-27T09:02:57;100489.75;;;4.76;72.80
48424;BME280;34232;42.502;26.014;2024-01-27T09:05:23;100495.81;;;4.76;72.28
48424;BME280;34232;42.502;26.014;2024-01-27T09:07:48;100495.97;;;4.73;72.05
48424;BME280;34232;42.502;26.014;2024-01-27T09:10:13;100514.84;;;4.78;71.65
48424;BME280;34232;42.502;26.014;2024-01-27T09:12:40;100514.75;;;4.80;72.17
48424;BME280;34232;42.502;26.014;2024-01-27T09:15:06;100503.25;;;4.84;72.16
48424;BME280;34232;42.502;26.014;2024-01-27T09:17:32;100504.69;;;4.89;71.99
48424;BME280;34232;42.502;26.014;2024-01-27T09:19:57;100503.63;;;4.93;72.45
48424;BME280;34232;42.502;26.014;2024-01-27T09:22:23;100497.41;;;4.96;72.29
48424;BME280;34232;42.502;26.014;2024-01-27T09:24:48;100486.13;;;4.96;72.53
48424;BME280;34232;42.502;26.014;2024-01-27T09:27:13;100491.34;;;4.96;72.64
48424;BME280;34232;42.502;26.014;2024-01-27T09:29:39;100481.06;;;4.92;73.25
48424;BME280;34232;42.502;26.014;2024-01-27T09:32:04;100477.53;;;4.93;74.17
48424;BME280;34232;42.502;26.014;2024-01-27T09:34:29;100469.34;;;4.84;73.38
48424;BME280;34232;42.502;26.014;2024-01-27T09:36:55;100470.19;;;4.84;73.35
48424;BME280;34232;42.502;26.014;2024-01-27T09:39:20;100472.72;;;4.86;74.60
48424;BME280;34232;42.502;26.014;2024-01-27T09:41:45;100476.34;;;4.83;74.53
48424;BME280;34232;42.502;26.014;2024-01-27T09:44:12;100484.00;;;4.86;74.43
48424;BME280;34232;42.502;26.014;2024-01-27T09:46:37;100494.50;;;4.85;75.51
48424;BME280;34232;42.502;26.014;2024-01-27T09:49:03;100477.03;;;4.87;75.62
48424;BME280;34232;42.502;26.014;2024-01-27T09:51:29;100487.28;;;4.90;75.07
48424;BME280;34232;42.502;26.014;2024-01-27T09:53:54;100472.47;;;4.90;75.80
48424;BME280;34232;42.502;26.014;2024-01-27T09:56:20;100453.75;;;4.67;76.07
48424;BME280;34232;42.502;26.014;2024-01-27T09:58:46;100455.63;;;4.80;76.45
48424;BME280;34232;42.502;26.014;2024-01-27T10:01:11;100460.34;;;4.89;77.86
48424;BME280;34232;42.502;26.014;2024-01-27T10:03:40;100463.88;;;4.88;78.27
48424;BME280;34232;42.502;26.014;2024-01-27T10:06:09;100443.50;;;4.79;79.54
48424;BME280;34232;42.502;26.014;2024-01-27T10:08:35;100439.34;;;4.42;77.78
48424;BME280;34232;42.502;26.014;2024-01-27T10:11:03;100446.94;;;4.47;78.36
48424;BME280;34232;42.502;26.014;2024-01-27T10:13:32;100457.97;;;4.69;80.46
48424;BME280;34232;42.502;26.014;2024-01-27T10:16:07;100441.66;;;4.81;81.21
48424;BME280;34232;42.502;26.014;2024-01-27T10:18:33;100425.28;;;4.62;80.35
48424;BME280;34232;42.502;26.014;2024-01-27T10:20:59;100430.66;;;4.42;81.39
48424;BME280;34232;42.502;26.014;2024-01-27T10:23:25;100444.22;;;4.66;81.61
48424;BME280;34232;42.502;26.014;2024-01-27T10:25:50;100443.19;;;4.85;81.32
48424;BME280;34232;42.502;26.014;2024-01-27T10:28:16;100438.66;;;5.05;80.79
48424;BME280;34232;42.502;26.014;2024-01-27T10:30:42;100435.41;;;5.17;79.63
48424;BME280;34232;42.502;26.014;2024-01-27T10:33:08;100425.56;;;5.22;78.10
48424;BME280;34232;42.502;26.014;2024-01-27T10:35:35;100424.38;;;5.43;78.04
48424;BME280;34232;42.502;26.014;2024-01-27T10:38:00;100414.78;;;5.59;78.88
48424;BME280;34232;42.502;26.014;2024-01-27T10:40:26;100412.22;;;5.74;79.23
48424;BME280;34232;42.502;26.014;2024-01-27T10:43:01;100415.25;;;5.82;77.52
48424;BME280;34232;42.502;26.014;2024-01-27T10:45:29;100425.97;;;5.93;76.61
48424;BME280;34232;42.502;26.014;2024-01-27T10:47:54;100428.72;;;6.06;75.66
48424;BME280;34232;42.502;26.014;2024-01-27T10:50:21;100428.53;;;6.09;76.62
48424;BME280;34232;42.502;26.014;2024-01-27T10:52:48;100433.78;;;5.77;76.16
48424;BME280;34232;42.502;26.014;2024-01-27T10:55:15;100426.34;;;5.85;77.46
48424;BME280;34232;42.502;26.014;2024-01-27T10:57:41;100419.78;;;5.33;77.20
48424;BME280;34232;42.502;26.014;2024-01-27T11:00:07;100417.81;;;5.36;79.74
48424;BME280;34232;42.502;26.014;2024-01-27T11:02:34;100425.06;;;5.62;80.58
48424;BME280;34232;42.502;26.014;2024-01-27T11:05:03;100417.13;;;5.80;80.41
48424;BME280;34232;42.502;26.014;2024-01-27T11:07:30;100415.69;;;5.90;80.12
48424;BME280;34232;42.502;26.014;2024-01-27T11:09:56;100396.06;;;5.83;79.95
48424;BME280;34232;42.502;26.014;2024-01-27T11:12:22;100394.53;;;5.94;79.99
48424;BME280;34232;42.502;26.014;2024-01-27T11:14:48;100399.78;;;6.09;76.71
48424;BME280;34232;42.502;26.014;2024-01-27T11:17:14;100399.16;;;6.19;76.73
48424;BME280;34232;42.502;26.014;2024-01-27T11:19:40;100399.88;;;6.07;77.15
48424;BME280;34232;42.502;26.014;2024-01-27T11:22:06;100394.59;;;6.23;77.01
48424;BME280;34232;42.502;26.014;2024-01-27T11:24:31;100385.94;;;5.92;78.94
48424;BME280;34232;42.502;26.014;2024-01-27T11:27:03;100378.50;;;5.85;79.45
48424;BME280;34232;42.502;26.014;2024-01-27T11:29:29;100387.16;;;6.01;78.18
48424;BME280;34232;42.502;26.014;2024-01-27T11:31:57;100382.72;;;6.17;77.70
48424;BME280;34232;42.502;26.014;2024-01-27T11:34:22;100390.19;;;6.23;77.54
48424;BME280;34232;42.502;26.014;2024-01-27T11:36:47;100385.66;;;6.41;77.79
48424;BME280;34232;42.502;26.014;2024-01-27T11:42:08;100397.06;;;6.68;79.33
48424;BME280;34232;42.502;26.014;2024-01-27T11:44:34;100390.25;;;6.80;80.04
48424;BME280;34232;42.502;26.014;2024-01-27T11:47:00;100399.97;;;6.92;79.04
48424;BME280;34232;42.502;26.014;2024-01-27T11:49:25;100397.69;;;7.00;78.71
48424;BME280;34232;42.502;26.014;2024-01-27T11:51:51;100385.53;;;6.99;76.51
48424;BME280;34232;42.502;26.014;2024-01-27T11:54:17;100380.22;;;7.01;77.06
48424;BME280;34232;42.502;26.014;2024-01-27T11:56:42;100378.44;;;7.01;75.32
48424;BME280;34232;42.502;26.014;2024-01-27T11:59:07;100381.81;;;7.03;75.47
48424;BME280;34232;42.502;26.014;2024-01-27T12:01:33;100378.25;;;7.05;75.00
48424;BME280;34232;42.502;26.014;2024-01-27T12:03:58;100388.44;;;7.09;75.30
48424;BME280;34232;42.502;26.014;2024-01-27T12:06:23;100396.03;;;7.14;74.72
48424;BME280;34232;42.502;26.014;2024-01-27T12:08:52;100395.91;;;7.15;74.86
48424;BME280;34232;42.502;26.014;2024-01-27T12:11:17;100396.19;;;7.25;74.09
48424;BME280;34232;42.502;26.014;2024-01-27T12:13:43;100397.88;;;7.26;73.96
48424;BME280;34232;42.502;26.014;2024-01-27T12:16:08;100399.09;;;7.06;74.26
48424;BME280;34232;42.502;26.014;2024-01-27T12:18:34;100404.50;;;7.17;75.18
48424;BME280;34232;42.502;26.014;2024-01-27T12:20:59;100404.97;;;7.24;75.07
48424;BME280;34232;42.502;26.014;2024-01-27T12:23:25;100401.22;;;7.28;74.40
48424;BME280;34232;42.502;26.014;2024-01-27T12:25:53;100405.13;;;7.35;74.08
48424;BME280;34232;42.502;26.014;2024-01-27T12:28:19;100404.00;;;7.39;73.85
48424;BME280;34232;42.502;26.014;2024-01-27T12:30:45;100401.94;;;7.44;73.39
48424;BME280;34232;42.502;26.014;2024-01-27T12:33:11;100397.69;;;7.29;73.27
48424;BME280;34232;42.502;26.014;2024-01-27T12:35:37;100414.09;;;7.45;72.78
48424;BME280;34232;42.502;26.014;2024-01-27T12:38:02;100419.34;;;7.45;73.16
48424;BME280;34232;42.502;26.014;2024-01-27T12:40:30;100414.81;;;7.47;73.39
48424;BME280;34232;42.502;26.014;2024-01-27T12:42:56;100411.81;;;7.53;72.55
48424;BME280;34232;42.502;26.014;2024-01-27T12:45:21;100413.50;;;7.54;71.98
48424;BME280;34232;42.502;26.014;2024-01-27T12:47:46;100415.00;;;7.58;72.18
48424;BME280;34232;42.502;26.014;2024-01-27T12:50:12;100418.34;;;7.60;72.93
48424;BME280;34232;42.502;26.014;2024-01-27T12:52:37;100428.38;;;7.54;73.12
48424;BME280;34232;42.502;26.014;2024-01-27T12:55:03;100427.25;;;7.58;72.32
48424;BME280;34232;42.502;26.014;2024-01-27T12:57:29;100436.84;;;7.71;72.92
48424;BME280;34232;42.502;26.014;2024-01-27T12:59:54;100435.94;;;7.58;73.54
48424;BME280;34232;42.502;26.014;2024-01-27T13:02:19;100450.69;;;7.73;73.82
48424;BME280;34232;42.502;26.014;2024-01-27T13:04:45;100457.09;;;7.82;73.26
48424;BME280;34232;42.502;26.014;2024-01-27T13:07:10;100452.38;;;7.75;73.45
48424;BME280;34232;42.502;26.014;2024-01-27T13:09:35;100453.84;;;7.79;72.53
48424;BME280;34232;42.502;26.014;2024-01-27T13:12:02;100460.97;;;7.77;72.00
48424;BME280;34232;42.502;26.014;2024-01-27T13:14:27;100471.03;;;7.83;72.61
48424;BME280;34232;42.502;26.014;2024-01-27T13:16:52;100471.03;;;7.83;72.54
48424;BME280;34232;42.502;26.014;2024-01-27T13:19:19;100472.72;;;7.84;71.21
48424;BME280;34232;42.502;26.014;2024-01-27T13:21:44;100466.41;;;7.73;71.71
48424;BME280;34232;42.502;26.014;2024-01-27T13:24:10;100472.69;;;7.71;72.94
48424;BME280;34232;42.502;26.014;2024-01-27T13:26:36;100461.91;;;7.76;73.71
48424;BME280;34232;42.502;26.014;2024-01-27T13:29:04;100466.56;;;7.85;74.19
48424;BME280;34232;42.502;26.014;2024-01-27T13:31:30;100458.50;;;7.88;71.45
48424;BME280;34232;42.502;26.014;2024-01-27T13:33:56;100450.84;;;7.97;70.94
48424;BME280;34232;42.502;26.014;2024-01-27T13:36:22;100451.75;;;8.11;70.35
48424;BME280;34232;42.502;26.014;2024-01-27T13:38:47;100459.63;;;8.11;69.99
48424;BME280;34232;42.502;26.014;2024-01-27T13:41:12;100457.53;;;8.16;69.58
48424;BME280;34232;42.502;26.014;2024-01-27T13:43:38;100466.59;;;8.24;70.43
48424;BME280;34232;42.502;26.014;2024-01-27T13:46:03;100460.91;;;8.30;69.46
48424;BME280;34232;42.502;26.014;2024-01-27T13:48:29;100458.72;;;8.24;69.60
48424;BME280;34232;42.502;26.014;2024-01-27T13:50:54;100464.91;;;8.23;70.42
48424;BME280;34232;42.502;26.014;2024-01-27T13:53:19;100459.66;;;8.23;71.66
48424;BME280;34232;42.502;26.014;2024-01-27T13:55:45;100450.66;;;8.27;72.79
48424;BME280;34232;42.502;26.014;2024-01-27T13:58:10;100441.09;;;8.26;72.60
48424;BME280;34232;42.502;26.014;2024-01-27T14:00:35;100439.09;;;8.30;73.92
48424;BME280;34232;42.502;26.014;2024-01-27T14:03:01;100415.59;;;8.28;74.06
48424;BME280;34232;42.502;26.014;2024-01-27T14:05:26;100416.00;;;8.22;73.49
48424;BME280;34232;42.502;26.014;2024-01-27T14:07:52;100417.91;;;8.20;73.75
48424;BME280;34232;42.502;26.014;2024-01-27T14:10:18;100418.72;;;8.21;74.61
48424;BME280;34232;42.502;26.014;2024-01-27T14:12:43;100446.00;;;8.18;74.51
48424;BME280;34232;42.502;26.014;2024-01-27T14:15:08;100444.50;;;8.14;74.89
48424;BME280;34232;42.502;26.014;2024-01-27T14:17:35;100471.53;;;8.02;74.75
48424;BME280;34232;42.502;26.014;2024-01-27T14:20:03;100486.34;;;8.03;74.28
48424;BME280;34232;42.502;26.014;2024-01-27T14:22:29;100478.28;;;8.06;74.52
48424;BME280;34232;42.502;26.014;2024-01-27T14:24:55;100471.53;;;8.02;74.31
48424;BME280;34232;42.502;26.014;2024-01-27T14:27:20;100469.66;;;8.04;74.63
48424;BME280;34232;42.502;26.014;2024-01-27T14:29:54;100488.03;;;8.04;74.80
48424;BME280;34232;42.502;26.014;2024-01-27T14:32:20;100496.97;;;8.14;75.54
48424;BME280;34232;42.502;26.014;2024-01-27T14:34:46;100502.19;;;8.14;77.61
48424;BME280;34232;42.502;26.014;2024-01-27T14:37:11;100514.78;;;8.09;79.15
48424;BME280;34232;42.502;26.014;2024-01-27T14:39:38;100519.47;;;8.04;80.89
48424;BME280;34232;42.502;26.014;2024-01-27T14:42:06;100527.16;;;8.07;82.02
48424;BME280;34232;42.502;26.014;2024-01-27T14:44:33;100522.09;;;8.04;83.69
48424;BME280;34232;42.502;26.014;2024-01-27T14:46:58;100526.59;;;8.02;84.69
48424;BME280;34232;42.502;26.014;2024-01-27T14:49:23;100532.59;;;8.04;83.20
48424;BME280;34232;42.502;26.014;2024-01-27T14:51:49;100522.44;;;8.12;83.36
48424;BME280;34232;42.502;26.014;2024-01-27T14:54:14;100526.34;;;8.19;84.06
48424;BME280;34232;42.502;26.014;2024-01-27T14:56:39;100528.22;;;8.17;83.01
48424;BME280;34232;42.502;26.014;2024-01-27T14:59:05;100530.00;;;8.17;83.01
48424;BME280;34232;42.502;26.014;2024-01-27T15:01:32;100528.03;;;8.20;82.29
48424;BME280;34232;42.502;26.014;2024-01-27T15:03:58;100535.16;;;8.18;81.12
48424;BME280;34232;42.502;26.014;2024-01-27T15:06:25;100535.34;;;8.15;81.61
48424;BME280;34232;42.502;26.014;2024-01-27T15:08:51;100537.03;;;8.16;81.07
48424;BME280;34232;42.502;26.014;2024-01-27T15:11:16;100538.16;;;8.12;80.59
48424;BME280;34232;42.502;26.014;2024-01-27T15:13:41;100545.78;;;8.02;77.27
48424;BME280;34232;42.502;26.014;2024-01-27T15:16:07;100556.22;;;7.90;76.62
48424;BME280;34232;42.502;26.014;2024-01-27T15:18:32;100569.78;;;7.82;76.28
48424;BME280;34232;42.502;26.014;2024-01-27T15:20:59;100569.16;;;7.64;77.61
48424;BME280;34232;42.502;26.014;2024-01-27T15:23:24;100577.03;;;7.50;78.31
48424;BME280;34232;42.502;26.014;2024-01-27T15:25:52;100584.13;;;7.34;79.56
48424;BME280;34232;42.502;26.014;2024-01-27T15:28:17;100581.34;;;7.23;82.15
48424;BME280;34232;42.502;26.014;2024-01-27T15:30:43;100586.91;;;7.17;83.62
48424;BME280;34232;42.502;26.014;2024-01-27T15:33:11;100597.13;;;7.07;84.32
48424;BME280;34232;42.502;26.014;2024-01-27T15:35:36;100589.16;;;7.09;84.52
48424;BME280;34232;42.502;26.014;2024-01-27T15:38:02;100593.25;;;6.98;85.06
48424;BME280;34232;42.502;26.014;2024-01-27T15:40:27;100592.94;;;6.89;85.31
48424;BME280;34232;42.502;26.014;2024-01-27T15:42:52;100590.97;;;6.78;85.77
48424;BME280;34232;42.502;26.014;2024-01-27T15:45:18;100587.59;;;6.76;84.31
48424;BME280;34232;42.502;26.014;2024-01-27T15:47:43;100594.34;;;6.80;83.66
48424;BME280;34232;42.502;26.014;2024-01-27T15:50:08;100588.56;;;6.89;83.48
48424;BME280;34232;42.502;26.014;2024-01-27T15:52:36;100602.41;;;6.91;82.87
48424;BME280;34232;42.502;26.014;2024-01-27T15:55:01;100599.53;;;6.96;83.37
48424;BME280;34232;42.502;26.014;2024-01-27T15:57:27;100608.78;;;7.01;83.77
48424;BME280;34232;42.502;26.014;2024-01-27T15:59:52;100618.13;;;7.06;82.57
48424;BME280;34232;42.502;26.014;2024-01-27T16:02:17;100618.63;;;7.12;81.99
48424;BME280;34232;42.502;26.014;2024-01-27T16:04:43;100617.59;;;7.15;81.46
48424;BME280;34232;42.502;26.014;2024-01-27T16:07:09;100618.16;;;7.20;81.65
48424;BME280;34232;42.502;26.014;2024-01-27T16:09:34;100619.00;;;7.20;81.64
48424;BME280;34232;42.502;26.014;2024-01-27T16:12:05;100623.41;;;7.20;81.81
48424;BME280;34232;42.502;26.014;2024-01-27T16:14:30;100630.31;;;7.21;81.10
48424;BME280;34232;42.502;26.014;2024-01-27T16:16:55;100646.97;;;7.20;82.42
48424;BME280;34232;42.502;26.014;2024-01-27T16:19:21;100643.25;;;7.24;81.87
48424;BME280;34232;42.502;26.014;2024-01-27T16:21:46;100641.72;;;7.20;81.73
48424;BME280;34232;42.502;26.014;2024-01-27T16:24:11;100648.66;;;7.21;81.41
48424;BME280;34232;42.502;26.014;2024-01-27T16:26:37;100665.13;;;7.23;80.16
48424;BME280;34232;42.502;26.014;2024-01-27T16:29:02;100672.88;;;7.24;79.57
48424;BME280;34232;42.502;26.014;2024-01-27T16:31:28;100681.50;;;7.26;79.00
48424;BME280;34232;42.502;26.014;2024-01-27T16:33:54;100678.97;;;7.25;79.26
48424;BME280;34232;42.502;26.014;2024-01-27T16:36:19;100682.50;;;7.24;79.07
48424;BME280;34232;42.502;26.014;2024-01-27T16:38:44;100693.34;;;7.18;77.70
48424;BME280;34232;42.502;26.014;2024-01-27T16:41:09;100683.69;;;7.18;77.93
48424;BME280;34232;42.502;26.014;2024-01-27T16:43:35;100686.63;;;7.14;77.14
48424;BME280;34232;42.502;26.014;2024-01-27T16:46:00;100679.69;;;7.13;76.53
48424;BME280;34232;42.502;26.014;2024-01-27T16:48:25;100686.63;;;7.14;74.69
48424;BME280;34232;42.502;26.014;2024-01-27T16:50:51;100686.78;;;7.11;74.63
48424;BME280;34232;42.502;26.014;2024-01-27T16:53:16;100686.41;;;7.17;73.74
48424;BME280;34232;42.502;26.014;2024-01-27T16:55:41;100691.94;;;7.12;73.23
48424;BME280;34232;42.502;26.014;2024-01-27T16:58:07;100693.88;;;7.09;73.97
48424;BME280;34232;42.502;26.014;2024-01-27T17:00:32;100690.16;;;7.13;73.89
48424;BME280;34232;42.502;26.014;2024-01-27T17:02:58;100697.44;;;7.08;74.82
48424;BME280;34232;42.502;26.014;2024-01-27T17:05:23;100700.97;;;7.07;74.27
48424;BME280;34232;42.502;26.014;2024-01-27T17:07:48;100704.34;;;7.09;73.52
48424;BME280;34232;42.502;26.014;2024-01-27T17:10:14;100716.69;;;7.07;73.71
48424;BME280;34232;42.502;26.014;2024-01-27T17:12:40;100713.84;;;6.95;72.84
48424;BME280;34232;42.502;26.014;2024-01-27T17:15:05;100714.72;;;6.80;74.02
48424;BME280;34232;42.502;26.014;2024-01-27T17:17:31;100717.50;;;6.77;74.37
48424;BME280;34232;42.502;26.014;2024-01-27T17:19:57;100718.91;;;6.67;75.03
48424;BME280;34232;42.502;26.014;2024-01-27T17:22:22;100733.28;;;6.60;75.96
48424;BME280;34232;42.502;26.014;2024-01-27T17:24:48;100733.13;;;6.63;76.61
48424;BME280;34232;42.502;26.014;2024-01-27T17:27:13;100735.66;;;6.64;75.78
48424;BME280;34232;42.502;26.014;2024-01-27T17:29:39;100740.97;;;6.63;76.09
48424;BME280;34232;42.502;26.014;2024-01-27T17:32:04;100741.53;;;6.68;74.93
48424;BME280;34232;42.502;26.014;2024-01-27T17:34:30;100762.81;;;6.62;74.93
48424;BME280;34232;42.502;26.014;2024-01-27T17:36:55;100765.34;;;6.63;75.20
48424;BME280;34232;42.502;26.014;2024-01-27T17:39:20;100779.00;;;6.68;74.44
48424;BME280;34232;42.502;26.014;2024-01-27T17:41:48;100785.59;;;6.76;74.88
48424;BME280;34232;42.502;26.014;2024-01-27T17:44:14;100784.22;;;6.68;74.86
48424;BME280;34232;42.502;26.014;2024-01-27T17:46:39;100782.38;;;6.71;74.26
48424;BME280;34232;42.502;26.014;2024-01-27T17:49:05;100785.44;;;6.79;74.62
48424;BME280;34232;42.502;26.014;2024-01-27T17:51:32;100795.75;;;6.82;75.69
48424;BME280;34232;42.502;26.014;2024-01-27T17:53:59;100812.25;;;6.82;74.82
48424;BME280;34232;42.502;26.014;2024-01-27T17:56:27;100805.16;;;6.84;75.33
48424;BME280;34232;42.502;26.014;2024-01-27T17:58:52;100810.69;;;6.80;75.76
48424;BME280;34232;42.502;26.014;2024-01-27T18:01:18;100815.72;;;6.83;76.53
48424;BME280;34232;42.502;26.014;2024-01-27T18:03:43;100805.50;;;6.62;76.12
48424;BME280;34232;42.502;26.014;2024-01-27T18:06:08;100810.88;;;6.44;77.50
48424;BME280;34232;42.502;26.014;2024-01-27T18:08:34;100809.34;;;6.40;78.99
48424;BME280;34232;42.502;26.014;2024-01-27T18:10:59;100815.50;;;6.39;79.22
48424;BME280;34232;42.502;26.014;2024-01-27T18:13:25;100830.41;;;6.37;79.84
48424;BME280;34232;42.502;26.014;2024-01-27T18:15:51;100840.72;;;6.40;79.53
48424;BME280;34232;42.502;26.014;2024-01-27T18:18:16;100832.22;;;6.52;79.54
48424;BME280;34232;42.502;26.014;2024-01-27T18:20:41;100838.91;;;6.57;78.83
48424;BME280;34232;42.502;26.014;2024-01-27T18:23:07;100857.28;;;6.56;78.55
48424;BME280;34232;42.502;26.014;2024-01-27T18:25:32;100860.06;;;6.53;77.84
48424;BME280;34232;42.502;26.014;2024-01-27T18:27:57;100859.00;;;6.57;77.73
48424;BME280;34232;42.502;26.014;2024-01-27T18:30:23;100879.91;;;6.57;78.68
48424;BME280;34232;42.502;26.014;2024-01-27T18:32:48;100878.22;;;6.56;78.26
48424;BME280;34232;42.502;26.014;2024-01-27T18:35:13;100889.38;;;6.59;79.56
48424;BME280;34232;42.502;26.014;2024-01-27T18:37:39;100880.00;;;6.55;80.66
48424;BME280;34232;42.502;26.014;2024-01-27T18:40:04;100881.75;;;6.55;82.30
48424;BME280;34232;42.502;26.014;2024-01-27T18:42:30;100878.38;;;6.53;82.92
48424;BME280;34232;42.502;26.014;2024-01-27T18:44:55;100883.66;;;6.68;82.47
48424;BME280;34232;42.502;26.014;2024-01-27T18:47:21;100880.25;;;6.66;82.03
48424;BME280;34232;42.502;26.014;2024-01-27T18:49:49;100878.78;;;6.45;82.88
48424;BME280;34232;42.502;26.014;2024-01-27T18:52:14;100865.16;;;6.56;83.96
48424;BME280;34232;42.502;26.014;2024-01-27T18:54:40;100858.50;;;6.66;82.63
48424;BME280;34232;42.502;26.014;2024-01-27T18:57:05;100862.72;;;6.68;82.38
48424;BME280;34232;42.502;26.014;2024-01-27T18:59:32;100853.72;;;6.74;82.23
48424;BME280;34232;42.502;26.014;2024-01-27T19:01:57;100857.16;;;6.75;82.47
48424;BME280;34232;42.502;26.014;2024-01-27T19:04:23;100856.63;;;6.68;82.71
48424;BME280;34232;42.502;26.014;2024-01-27T19:06:50;100853.66;;;6.43;79.29
48424;BME280;34232;42.502;26.014;2024-01-27T19:09:15;100851.94;;;6.42;79.01
48424;BME280;34232;42.502;26.014;2024-01-27T19:11:41;100856.72;;;6.33;77.82
48424;BME280;34232;42.502;26.014;2024-01-27T19:14:07;100872.59;;;6.30;77.52
48424;BME280;34232;42.502;26.014;2024-01-27T19:16:32;100874.28;;;6.31;77.33
48424;BME280;34232;42.502;26.014;2024-01-27T19:18:58;100884.28;;;6.23;77.74
48424;BME280;34232;42.502;26.014;2024-01-27T19:21:23;100891.19;;;6.24;76.76
48424;BME280;34232;42.502;26.014;2024-01-27T19:23:48;100885.81;;;6.27;75.73
48424;BME280;34232;42.502;26.014;2024-01-27T19:26:13;100896.56;;;6.39;74.66
48424;BME280;34232;42.502;26.014;2024-01-27T19:28:39;100897.56;;;6.36;75.16
48424;BME280;34232;42.502;26.014;2024-01-27T19:31:04;100904.13;;;6.27;73.64
48424;BME280;34232;42.502;26.014;2024-01-27T19:33:30;100916.56;;;6.22;73.51
48424;BME280;34232;42.502;26.014;2024-01-27T19:35:55;100925.97;;;6.26;73.54
48424;BME280;34232;42.502;26.014;2024-01-27T19:38:20;100931.81;;;6.31;72.50
48424;BME280;34232;42.502;26.014;2024-01-27T19:40:46;100944.41;;;6.41;72.86
48424;BME280;34232;42.502;26.014;2024-01-27T19:43:12;100939.16;;;6.41;71.26
48424;BME280;34232;42.502;26.014;2024-01-27T19:45:37;100950.84;;;6.51;71.10
48424;BME280;34232;42.502;26.014;2024-01-27T19:48:03;100951.25;;;6.43;69.57
48424;BME280;34232;42.502;26.014;2024-01-27T19:50:28;100950.09;;;6.49;69.91
48424;BME280;34232;42.502;26.014;2024-01-27T19:52:53;100954.84;;;6.58;70.07
48424;BME280;34232;42.502;26.014;2024-01-27T19:55:20;100957.53;;;6.56;69.00
48424;BME280;34232;42.502;26.014;2024-01-27T19:57:45;100958.53;;;6.54;69.23
48424;BME280;34232;42.502;26.014;2024-01-27T20:00:11;100956.38;;;6.62;68.98
48424;BME280;34232;42.502;26.014;2024-01-27T20:02:36;100956.31;;;6.63;68.28
48424;BME280;34232;42.502;26.014;2024-01-27T20:05:02;100951.16;;;6.62;67.52
48424;BME280;34232;42.502;26.014;2024-01-27T20:07:29;100952.59;;;6.67;67.94
48424;BME280;34232;42.502;26.014;2024-01-27T20:09:57;100947.44;;;6.66;67.93
48424;BME280;34232;42.502;26.014;2024-01-27T20:12:25;100951.31;;;6.59;67.63
48424;BME280;34232;42.502;26.014;2024-01-27T20:14:50;100950.31;;;6.61;67.36
48424;BME280;34232;42.502;26.014;2024-01-27T20:17:15;100944.69;;;6.52;67.78
48424;BME280;34232;42.502;26.014;2024-01-27T20:19:41;100940.63;;;6.46;68.70
48424;BME280;34232;42.502;26.014;2024-01-27T20:22:06;100953.09;;;6.41;68.18
48424;BME280;34232;42.502;26.014;2024-01-27T20:24:31;100957.19;;;6.47;67.83
48424;BME280;34232;42.502;26.014;2024-01-27T20:26:56;100956.56;;;6.42;67.32
48424;BME280;34232;42.502;26.014;2024-01-27T20:29:22;100957.78;;;6.35;66.51
48424;BME280;34232;42.502;26.014;2024-01-27T20:31:47;100961.00;;;6.40;67.47
48424;BME280;34232;42.502;26.014;2024-01-27T20:34:12;100961.00;;;6.40;68.23
48424;BME280;34232;42.502;26.014;2024-01-27T20:36:38;100969.00;;;6.37;68.38
48424;BME280;34232;42.502;26.014;2024-01-27T20:39:03;100966.25;;;6.40;67.82
48424;BME280;34232;42.502;26.014;2024-01-27T20:41:31;100968.63;;;6.44;67.41
48424;BME280;34232;42.502;26.014;2024-01-27T20:43:56;100971.94;;;6.48;67.71
48424;BME280;34232;42.502;26.014;2024-01-27T20:46:21;100976.69;;;6.40;67.12
48424;BME280;34232;42.502;26.014;2024-01-27T20:48:47;100994.88;;;6.43;67.01
48424;BME280;34232;42.502;26.014;2024-01-27T20:51:12;100988.84;;;6.41;67.22
48424;BME280;34232;42.502;26.014;2024-01-27T20:53:38;100989.34;;;6.31;66.76
48424;BME280;34232;42.502;26.014;2024-01-27T20:56:03;100987.78;;;6.45;66.46
48424;BME280;34232;42.502;26.014;2024-01-27T20:58:29;100993.94;;;6.44;66.02
48424;BME280;34232;42.502;26.014;2024-01-27T21:00:54;100991.94;;;6.49;66.56
48424;BME280;34232;42.502;26.014;2024-01-27T21:03:21;101004.25;;;6.47;66.67
48424;BME280;34232;42.502;26.014;2024-01-27T21:05:46;101008.78;;;6.43;67.64